Time;durP1;ratioP1;P1;durP2;ratioP2;P2;SDS_P1;SDS_P2;PMS_P1;PMS_P2;Temp;Humidity;BMP_temperature;BMP_pressure;BME280_temperature;BME280_humidity;BME280_pressure;Samples;Min_cycle;Max_cycle;Signal;HPM_P1;HPM_P2
2022/05/01 00:00:44;;;;;;;1.38;1.27;;;19.60;40.70;18.70;102036.00;;;;5041245;28;20037;-69
2022/05/01 00:03:34;;;;;;;1.88;1.27;;;19.60;40.70;18.70;102038.00;;;;5035115;28;20037;-69
2022/05/01 00:06:20;;;;;;;2.08;1.50;;;19.70;40.80;18.70;102031.00;;;;5040191;28;20048;-69
2022/05/01 00:09:06;;;;;;;1.40;1.30;;;19.60;40.80;18.70;102033.00;;;;5037903;28;20463;-69
2022/05/01 00:11:53;;;;;;;1.77;1.30;;;19.50;40.70;18.70;102034.00;;;;5024970;28;20041;-69
2022/05/01 00:14:39;;;;;;;2.20;1.45;;;19.60;40.80;18.70;102031.00;;;;5042025;28;20048;-68
2022/05/01 00:17:25;;;;;;;2.97;1.40;;;19.60;40.80;18.70;102031.00;;;;5033609;28;20067;-69
2022/05/01 00:20:11;;;;;;;1.67;1.58;;;19.60;40.90;18.70;102031.00;;;;5039569;28;20391;-69
2022/05/01 00:22:57;;;;;;;1.83;1.23;;;19.50;40.80;18.70;102019.00;;;;5041066;28;20624;-69
2022/05/01 00:25:43;;;;;;;2.88;1.67;;;19.60;40.80;18.70;102016.00;;;;5036377;28;20099;-69
2022/05/01 00:28:32;;;;;;;1.52;1.40;;;19.60;40.90;18.70;102020.00;;;;5027352;28;20513;-69
2022/05/01 00:31:18;;;;;;;2.72;1.45;;;19.60;40.90;18.70;102018.00;;;;5026433;28;20124;-69
2022/05/01 00:37:08;;;;;;;1.77;1.33;;;19.60;40.90;18.70;102019.00;;;;5038019;28;20084;-69
2022/05/01 00:39:55;;;;;;;1.80;1.40;;;19.60;40.90;18.70;102020.00;;;;5038114;28;20044;-68
2022/05/01 00:42:41;;;;;;;2.30;1.30;;;19.50;40.90;18.70;102023.00;;;;5039565;28;20356;-69
2022/05/01 00:45:27;;;;;;;1.77;1.40;;;19.50;40.90;18.70;102014.00;;;;5041544;28;20417;-69
2022/05/01 00:48:13;;;;;;;2.28;1.63;;;19.50;40.90;18.70;102011.00;;;;5046726;28;20041;-69
2022/05/01 00:51:03;;;;;;;2.47;1.48;;;19.50;40.90;18.70;102011.00;;;;5040944;28;20244;-69
2022/05/01 00:53:49;;;;;;;1.83;1.45;;;19.50;40.90;18.60;102011.00;;;;5037467;28;20075;-69
2022/05/01 00:56:39;;;;;;;1.75;1.60;;;19.50;40.90;18.60;102011.00;;;;5044992;28;20094;-68
2022/05/01 00:59:26;;;;;;;1.92;1.60;;;19.50;41.00;18.60;102017.00;;;;5022380;28;20068;-68
2022/05/01 01:02:12;;;;;;;2.47;1.60;;;19.40;40.90;18.60;102013.00;;;;5046577;28;20169;-68
2022/05/01 01:04:58;;;;;;;2.20;1.60;;;19.50;41.00;18.60;102016.00;;;;5041125;28;20483;-69
2022/05/01 01:07:44;;;;;;;2.72;1.38;;;19.50;41.00;18.60;102013.00;;;;5036653;28;20041;-69
2022/05/01 01:10:30;;;;;;;2.75;1.60;;;19.50;41.10;18.60;102011.00;;;;5033302;28;20116;-68
2022/05/01 01:13:24;;;;;;;2.25;1.38;;;19.50;41.10;18.60;102014.00;;;;5038986;28;20049;-69
2022/05/01 01:16:10;;;;;;;2.15;1.60;;;19.50;41.10;18.60;102017.00;;;;5014255;28;20038;-69
2022/05/01 01:18:57;;;;;;;2.90;1.50;;;19.50;41.10;18.60;102016.00;;;;5020568;28;20083;-69
2022/05/01 01:21:43;;;;;;;3.42;1.70;;;19.50;41.10;18.60;102011.00;;;;5034186;28;20029;-68
2022/05/01 01:24:37;;;;;;;2.03;1.83;;;19.50;41.10;18.60;102010.00;;;;5034101;28;20045;-68
2022/05/01 01:27:23;;;;;;;2.53;1.77;;;19.50;41.10;18.60;102014.00;;;;5025707;28;20072;-69
2022/05/01 01:33:15;;;;;;;2.15;1.33;;;19.50;41.10;18.60;102021.00;;;;5038932;28;20049;-68
2022/05/01 01:36:05;;;;;;;3.22;2.28;;;19.50;41.10;18.60;102033.00;;;;5034024;28;20041;-68
2022/05/01 01:38:51;;;;;;;1.65;1.50;;;19.50;41.20;18.60;102021.00;;;;5040170;28;20449;-68
2022/05/01 01:41:37;;;;;;;2.05;1.70;;;19.50;41.20;18.60;102027.00;;;;5032866;28;20502;-69
2022/05/01 01:44:24;;;;;;;2.03;1.83;;;19.50;41.20;18.60;102021.00;;;;4994363;28;20500;-68
2022/05/01 01:47:13;;;;;;;2.23;1.77;;;19.50;41.10;18.60;102028.00;;;;5037371;28;20578;-68
2022/05/01 01:50:00;;;;;;;1.50;1.40;;;19.50;41.20;18.60;102025.00;;;;5035020;28;20068;-69
2022/05/01 01:52:46;;;;;;;1.75;1.50;;;19.50;41.20;18.60;102018.00;;;;5042483;28;20048;-69
2022/05/01 01:55:32;;;;;;;2.95;1.90;;;19.50;41.20;18.60;102017.00;;;;5024691;28;20048;-69
2022/05/01 01:58:18;;;;;;;2.45;1.83;;;19.50;41.20;18.60;102023.00;;;;5036252;28;20041;-69
2022/05/01 02:01:06;;;;;;;1.90;1.70;;;19.50;41.20;18.60;102026.00;;;;5026089;28;20036;-69
2022/05/01 02:03:52;;;;;;;1.92;1.58;;;19.50;42.00;18.60;102022.00;;;;5020186;28;20483;-69
2022/05/01 02:06:38;;;;;;;1.85;1.65;;;19.50;41.30;18.60;102019.00;;;;5038501;28;20042;-69
2022/05/01 02:09:24;;;;;;;2.65;1.85;;;19.50;41.30;18.60;102013.00;;;;5025766;28;20040;-69
2022/05/01 02:12:10;;;;;;;2.42;1.85;;;19.50;41.30;18.60;102019.00;;;;5036339;28;20087;-69
2022/05/01 02:14:56;;;;;;;3.15;2.40;;;19.50;41.30;18.60;102022.00;;;;5035046;28;20029;-69
2022/05/01 02:17:43;;;;;;;2.08;1.60;;;19.50;41.30;18.60;102024.00;;;;5037950;28;20056;-69
2022/05/01 02:21:34;;;;;;;2.42;1.95;;;19.50;41.30;18.60;102018.00;;;;5027294;28;20049;-69
2022/05/01 02:23:38;;;;;;;1.77;1.48;;;19.40;41.20;18.60;102022.00;;;;5014077;28;20044;-69
2022/05/01 02:26:24;;;;;;;1.88;1.73;;;19.50;41.30;18.60;102021.00;;;;5036683;28;20043;-69
2022/05/01 02:29:10;;;;;;;2.42;1.80;;;19.40;41.30;18.60;102021.00;;;;5033941;28;20504;-69
2022/05/01 02:31:56;;;;;;;3.17;2.28;;;19.40;41.30;18.60;102019.00;;;;5034068;28;20138;-69
2022/05/01 02:34:42;;;;;;;2.83;1.50;;;19.40;41.30;18.60;102011.00;;;;5015975;28;20833;-69
2022/05/01 02:37:28;;;;;;;1.50;1.40;;;19.40;41.30;18.60;102013.00;;;;5038071;28;20040;-69
2022/05/01 02:40:14;;;;;;;2.28;1.50;;;19.40;41.30;18.60;102011.00;;;;5035946;28;20045;-69
2022/05/01 02:43:01;;;;;;;2.65;1.83;;;19.40;41.30;18.60;102017.00;;;;5040410;28;20045;-68
2022/05/01 02:45:47;;;;;;;3.63;1.90;;;19.40;41.30;18.60;102016.00;;;;5025966;28;20108;-69
2022/05/01 02:48:33;;;;;;;2.45;1.73;;;19.40;41.40;18.60;102016.00;;;;5033827;28;20140;-69
2022/05/01 02:51:19;;;;;;;2.20;1.70;;;19.40;41.40;18.60;102015.00;;;;5041609;28;20075;-68
2022/05/01 02:54:05;;;;;;;2.33;1.90;;;19.40;41.40;18.60;102011.00;;;;5040001;28;20080;-68
2022/05/01 02:56:51;;;;;;;2.45;2.00;;;19.40;41.40;18.50;102013.00;;;;5037918;28;20064;-69
2022/05/01 02:59:37;;;;;;;2.40;1.70;;;19.40;41.40;18.60;102007.00;;;;5031999;28;20041;-68
2022/05/01 03:02:23;;;;;;;2.47;1.77;;;19.40;41.40;18.50;102005.00;;;;5041121;28;20040;-68
2022/05/01 03:05:09;;;;;;;3.40;1.80;;;19.40;41.40;18.60;102002.00;;;;5033315;28;20045;-69
2022/05/01 03:07:56;;;;;;;2.50;1.95;;;19.40;41.40;18.50;102004.00;;;;5046848;28;20029;-68
2022/05/01 03:10:43;;;;;;;2.05;1.50;;;19.40;41.40;18.50;102004.00;;;;5034275;28;20064;-69
2022/05/01 03:13:29;;;;;;;3.70;2.00;;;19.40;41.40;18.50;102003.00;;;;5031553;28;20551;-69
2022/05/01 03:16:15;;;;;;;2.78;2.00;;;19.40;41.40;18.50;102006.00;;;;5032013;28;20049;-69
2022/05/01 03:22:13;;;;;;;2.22;2.03;;;19.40;41.40;18.50;101991.00;;;;5031648;28;20048;-69
2022/05/01 03:24:59;;;;;;;2.88;2.10;;;19.40;41.40;18.50;101989.00;;;;5038293;28;20103;-69
2022/05/01 03:27:45;;;;;;;2.55;1.80;;;19.40;41.50;18.50;101997.00;;;;5037879;28;20507;-69
2022/05/01 03:30:32;;;;;;;2.28;2.08;;;19.30;41.50;18.50;101995.00;;;;5030470;28;20042;-68
2022/05/01 03:33:21;;;;;;;2.75;2.13;;;19.40;41.50;18.50;101987.00;;;;5036299;28;20077;-69
2022/05/01 03:36:07;;;;;;;2.60;1.90;;;19.40;41.50;18.50;101987.00;;;;5035724;28;20684;-69
2022/05/01 03:38:53;;;;;;;3.80;2.30;;;19.40;41.50;18.50;101991.00;;;;5034167;28;20033;-69
2022/05/01 03:41:40;;;;;;;2.72;2.00;;;19.40;41.50;18.50;101990.00;;;;5032188;28;20045;-69
2022/05/01 03:44:26;;;;;;;2.35;1.88;;;19.40;41.50;18.50;101996.00;;;;5040167;28;20056;-69
2022/05/01 03:47:12;;;;;;;2.20;1.98;;;19.40;41.50;18.50;101993.00;;;;5036036;28;20041;-69
2022/05/01 03:49:58;;;;;;;2.63;2.10;;;19.30;41.50;18.50;101991.00;;;;5034742;28;20041;-69
2022/05/01 03:52:44;;;;;;;3.05;1.98;;;19.50;41.60;18.50;101993.00;;;;5041809;28;20049;-69
2022/05/01 03:55:33;;;;;;;2.65;2.05;;;19.40;41.60;18.50;101995.00;;;;5033748;28;20033;-69
2022/05/01 03:58:20;;;;;;;2.20;2.00;;;19.40;41.60;18.50;102000.00;;;;5032825;28;20527;-68
2022/05/01 04:01:07;;;;;;;2.60;2.28;;;19.40;41.60;18.50;102007.00;;;;5039072;28;20123;-69
2022/05/01 04:03:53;;;;;;;1.73;1.58;;;19.40;41.60;18.50;101999.00;;;;5019426;28;20474;-69
2022/05/01 04:06:39;;;;;;;2.65;1.92;;;19.40;41.50;18.50;102000.00;;;;5038305;28;20045;-69
2022/05/01 04:09:28;;;;;;;3.17;2.03;;;19.40;41.60;18.50;101999.00;;;;5039713;28;20513;-68
2022/05/01 04:12:15;;;;;;;2.50;2.08;;;19.40;41.60;18.50;101997.00;;;;5040558;28;20126;-69
2022/05/01 04:15:03;;;;;;;3.50;2.10;;;19.40;41.60;18.50;101996.00;;;;5037356;28;20040;-69
2022/05/01 04:17:49;;;;;;;2.78;2.17;;;19.40;41.60;18.50;101995.00;;;;5031683;28;20408;-68
2022/05/01 04:20:39;;;;;;;2.47;2.22;;;19.40;41.60;18.50;102003.00;;;;5036073;28;20118;-69
2022/05/01 04:23:25;;;;;;;2.67;2.10;;;19.40;41.70;18.50;102014.00;;;;5033894;28;20509;-69
2022/05/01 04:26:11;;;;;;;3.17;2.63;;;19.40;41.70;18.50;102004.00;;;;5038067;28;20045;-68
2022/05/01 04:32:02;;;;;;;2.33;2.13;;;19.40;41.70;18.50;102010.00;;;;5038624;28;20037;-69
2022/05/01 04:34:48;;;;;;;4.35;2.67;;;19.30;41.60;18.50;102006.00;;;;5036024;28;20148;-69
2022/05/01 04:37:34;;;;;;;2.72;2.28;;;19.30;41.60;18.50;102001.00;;;;5034934;28;20036;-69
2022/05/01 04:40:20;;;;;;;3.33;2.50;;;19.40;41.70;18.50;102007.00;;;;5034985;28;20453;-68
2022/05/01 04:43:12;;;;;;;4.75;2.75;;;19.40;41.70;18.50;102006.00;;;;5038349;28;20610;-69
2022/05/01 04:46:00;;;;;;;3.38;2.65;;;19.40;41.80;18.50;101997.00;;;;5024596;28;20037;-69
2022/05/01 04:48:46;;;;;;;2.80;2.47;;;19.30;41.70;18.50;102009.00;;;;5033463;28;20107;-69
2022/05/01 04:51:32;;;;;;;4.47;3.17;;;19.40;41.80;18.50;102011.00;;;;5038056;28;20045;-69
2022/05/01 04:54:18;;;;;;;3.38;2.67;;;19.30;41.80;18.50;102013.00;;;;5038114;28;20053;-68
2022/05/01 04:57:05;;;;;;;4.13;2.95;;;19.30;41.80;18.50;102011.00;;;;5032506;28;20049;-68
2022/05/01 04:59:51;;;;;;;3.40;2.63;;;19.40;41.80;18.50;102006.00;;;;5020962;28;20434;-69
2022/05/01 05:02:44;;;;;;;4.28;2.70;;;19.40;41.80;18.50;102011.00;;;;5042425;28;20082;-68
2022/05/01 05:05:36;;;;;;;3.97;2.70;;;19.40;41.90;18.50;102012.00;;;;5034156;28;20123;-69
2022/05/01 05:11:27;;;;;;;3.28;2.38;;;19.40;41.90;18.50;102013.00;;;;5040501;28;20037;-68
2022/05/01 05:14:13;;;;;;;4.82;3.10;;;19.40;41.90;18.50;102015.00;;;;5036862;28;20044;-69
2022/05/01 05:17:00;;;;;;;4.28;2.88;;;19.30;41.90;18.50;102022.00;;;;5042677;28;20052;-69
2022/05/01 05:19:47;;;;;;;2.97;2.50;;;19.30;41.90;18.50;102022.00;;;;5041374;28;20036;-69
2022/05/01 05:22:33;;;;;;;3.50;3.17;;;19.40;41.90;18.50;102026.00;;;;5042149;28;20052;-69
2022/05/01 05:25:20;;;;;;;4.00;2.88;;;19.30;41.90;18.50;102024.00;;;;5042512;28;20421;-69
2022/05/01 05:28:08;;;;;;;4.00;2.83;;;19.30;41.90;18.50;102017.00;;;;5043283;28;20045;-69
2022/05/01 05:30:54;;;;;;;3.30;2.78;;;19.40;42.60;18.50;102020.00;;;;5038953;28;20503;-69
2022/05/01 05:33:40;;;;;;;4.90;3.08;;;19.40;42.00;18.50;102027.00;;;;5041029;28;20040;-69
2022/05/01 05:36:26;;;;;;;5.15;3.45;;;19.30;41.90;18.50;102016.00;;;;5025944;28;20409;-69
2022/05/01 05:39:12;;;;;;;3.67;3.10;;;19.30;41.90;18.50;102019.00;;;;5033196;28;20037;-69
2022/05/01 05:41:58;;;;;;;4.50;2.75;;;19.40;42.00;18.50;102020.00;;;;5039858;28;20478;-69
2022/05/01 05:44:44;;;;;;;4.15;3.10;;;19.30;42.00;18.50;102017.00;;;;5024341;28;20045;-69
2022/05/01 05:47:30;;;;;;;3.65;2.75;;;19.40;42.00;18.50;102026.00;;;;5030480;28;20045;-68
2022/05/01 05:50:16;;;;;;;4.47;2.78;;;19.40;42.00;18.50;102021.00;;;;5039776;28;20054;-68
2022/05/01 05:53:03;;;;;;;3.55;3.20;;;19.30;42.00;18.50;102011.00;;;;5036675;28;20628;-69
2022/05/01 05:55:49;;;;;;;4.10;3.33;;;19.40;42.10;18.50;102021.00;;;;5037938;28;20069;-69
2022/05/01 05:58:35;;;;;;;4.88;3.55;;;19.40;42.10;18.50;102020.00;;;;5040539;28;20478;-68
2022/05/01 06:01:22;;;;;;;3.63;3.10;;;19.40;42.10;18.50;102028.00;;;;5044287;28;20056;-69
2022/05/01 06:04:08;;;;;;;4.20;3.15;;;19.40;42.10;18.50;102033.00;;;;5015251;28;20548;-69
2022/05/01 06:06:54;;;;;;;4.90;3.20;;;19.30;42.10;18.50;102037.00;;;;5024084;28;20487;-69
2022/05/01 06:09:40;;;;;;;4.47;3.00;;;19.40;42.20;18.50;102037.00;;;;5034897;28;20052;-69
2022/05/01 06:12:28;;;;;;;3.20;2.90;;;19.40;42.10;18.50;102039.00;;;;5038165;28;20036;-68
2022/05/01 06:15:14;;;;;;;4.18;3.28;;;19.40;42.20;18.50;102035.00;;;;5032369;28;20133;-69
2022/05/01 06:18:00;;;;;;;3.85;3.00;;;19.40;42.20;18.50;102036.00;;;;5037599;28;20241;-68
2022/05/01 06:20:47;;;;;;;3.38;3.08;;;19.40;42.20;18.50;102033.00;;;;5023961;28;20041;-69
2022/05/01 06:23:37;;;;;;;4.57;3.47;;;19.40;42.20;18.50;102036.00;;;;5032628;28;20124;-69
2022/05/01 06:26:23;;;;;;;3.92;2.58;;;19.40;42.20;18.50;102033.00;;;;5039678;28;20390;-69
2022/05/01 06:29:09;;;;;;;5.03;3.42;;;19.40;42.20;18.50;102030.00;;;;5027732;28;20061;-69
2022/05/01 06:31:55;;;;;;;4.40;2.85;;;19.40;42.20;18.50;102032.00;;;;5038161;28;20041;-69
2022/05/01 06:34:41;;;;;;;4.22;3.15;;;19.40;42.20;18.50;102038.00;;;;5037770;28;20046;-69
2022/05/01 06:37:28;;;;;;;4.88;3.30;;;19.40;42.20;18.50;102035.00;;;;5027546;28;20044;-68
2022/05/01 06:40:14;;;;;;;3.10;2.80;;;19.30;42.20;18.50;102036.00;;;;5021512;28;20078;-69
2022/05/01 06:43:00;;;;;;;3.33;2.92;;;19.40;42.20;18.50;102027.00;;;;5037251;28;20093;-69
2022/05/01 06:45:47;;;;;;;3.10;2.75;;;19.40;42.30;18.50;102031.00;;;;5021870;28;20353;-68
2022/05/01 06:48:33;;;;;;;3.83;3.10;;;19.40;42.30;18.50;102034.00;;;;5036148;28;20041;-69
2022/05/01 06:51:19;;;;;;;3.78;2.83;;;19.40;42.20;18.50;102039.00;;;;5022111;28;20482;-69
2022/05/01 06:54:08;;;;;;;5.45;3.05;;;19.40;42.20;18.50;102038.00;;;;5032545;28;20045;-69
2022/05/01 06:56:54;;;;;;;4.78;3.10;;;19.40;42.30;18.50;102032.00;;;;5032105;28;20403;-69
2022/05/01 06:59:40;;;;;;;4.10;3.08;;;19.40;42.30;18.50;102041.00;;;;5040667;28;20037;-69
2022/05/01 07:02:26;;;;;;;3.97;3.03;;;19.40;42.30;18.50;102033.00;;;;5035405;28;20407;-69
2022/05/01 07:05:12;;;;;;;4.05;2.80;;;19.40;42.30;18.50;102038.00;;;;5035983;28;20041;-69
2022/05/01 07:07:58;;;;;;;5.05;3.08;;;19.40;42.30;18.50;102051.00;;;;5017108;28;20071;-70
2022/05/01 07:10:44;;;;;;;3.15;2.75;;;19.40;42.30;18.50;102039.00;;;;5024137;28;20048;-69
2022/05/01 07:13:31;;;;;;;4.38;3.08;;;19.30;42.30;18.50;102039.00;;;;5021807;28;20052;-69
2022/05/01 07:16:19;;;;;;;4.07;3.13;;;19.30;42.30;18.50;102049.00;;;;5034542;28;20433;-68
2022/05/01 07:19:06;;;;;;;4.88;3.08;;;19.40;42.30;18.50;102048.00;;;;5036490;28;20048;-69
2022/05/01 07:21:52;;;;;;;3.95;2.83;;;19.40;42.30;18.50;102040.00;;;;5040365;28;20037;-69
2022/05/01 07:24:38;;;;;;;5.18;2.88;;;19.40;42.40;18.50;102044.00;;;;5031549;28;20405;-69
2022/05/01 07:27:24;;;;;;;5.05;3.05;;;19.40;42.40;18.50;102042.00;;;;5020083;28;20049;-69
2022/05/01 07:30:11;;;;;;;4.82;2.97;;;19.50;42.50;18.50;102043.00;;;;5035238;28;20123;-69
2022/05/01 07:32:58;;;;;;;5.50;2.65;;;19.40;42.40;18.50;102046.00;;;;5033995;28;20049;-68
2022/05/01 07:35:44;;;;;;;5.20;2.80;;;19.50;42.40;18.50;102038.00;;;;5038217;28;20069;-69
2022/05/01 07:38:30;;;;;;;3.50;3.08;;;19.40;42.40;18.50;102045.00;;;;5036519;28;20033;-69
2022/05/01 07:41:16;;;;;;;3.83;2.63;;;19.40;42.40;18.50;102047.00;;;;5033085;28;20045;-69
2022/05/01 07:44:03;;;;;;;3.80;2.60;;;19.60;42.40;18.50;102045.00;;;;5035350;28;20048;-69
2022/05/01 07:46:51;;;;;;;4.03;2.85;;;19.50;42.40;18.50;102048.00;;;;5038088;28;20052;-68
2022/05/01 07:49:37;;;;;;;;;;;19.50;42.40;18.50;102051.00;;;;5030838;28;20398;-68
2022/05/01 07:52:25;;;;;;;3.90;2.60;;;19.40;42.30;18.50;102043.00;;;;5035157;28;20356;-69
2022/05/01 07:55:11;;;;;;;4.30;2.47;;;19.50;42.30;18.50;102046.00;;;;5042165;28;20041;-69
2022/05/01 07:57:57;;;;;;;5.22;2.55;;;19.50;42.40;18.50;102049.00;;;;5025541;28;20033;-69
2022/05/01 08:00:44;;;;;;;2.63;2.38;;;19.50;42.40;18.50;102048.00;;;;5034225;28;20033;-69
2022/05/01 08:06:35;;;;;;;3.72;2.00;;;19.50;43.10;18.50;102048.00;;;;5038898;28;20038;-68
2022/05/01 08:09:21;;;;;;;4.88;2.70;;;19.50;42.50;18.50;102049.00;;;;5024063;28;20048;-68
2022/05/01 08:12:07;;;;;;;3.30;2.60;;;19.40;42.40;18.50;102046.00;;;;5039081;28;20041;-69
2022/05/01 08:14:54;;;;;;;2.88;2.25;;;19.50;42.40;18.50;102045.00;;;;5019633;28;20379;-69
2022/05/01 08:17:40;;;;;;;2.85;2.33;;;19.50;42.40;18.60;102054.00;;;;5028919;28;20041;-69
2022/05/01 08:23:34;;;;;;;3.92;2.17;;;19.50;42.40;18.50;102045.00;;;;5034042;28;20049;-70
2022/05/01 08:26:21;;;;;;;12.65;3.25;;;19.50;42.40;18.50;102050.00;;;;5025082;28;20494;-70
2022/05/01 08:29:07;;;;;;;6.43;3.35;;;19.50;42.10;18.50;102057.00;;;;5031714;28;20049;-69
2022/05/01 08:31:54;;;;;;;10.20;4.72;;;19.50;42.20;18.40;102052.00;;;;5033360;28;20052;-70
2022/05/01 08:34:40;;;;;;;9.25;3.63;;;19.40;41.70;18.40;102054.00;;;;5037999;28;20614;-70
2022/05/01 08:37:26;;;;;;;10.60;3.85;;;19.50;41.70;18.30;102056.00;;;;5042127;28;20042;-70
2022/05/01 08:40:12;;;;;;;4.88;2.92;;;19.40;41.70;18.30;102051.00;;;;5034854;28;20044;-69
2022/05/01 08:42:58;;;;;;;5.82;4.10;;;19.40;41.20;18.30;102056.00;;;;5041061;28;20506;-70
2022/05/01 08:45:57;;;;;;;9.52;3.70;;;19.40;41.30;18.20;102057.00;;;;5007159;28;20409;-69
2022/05/01 08:49:05;;;;;;;6.18;3.88;;;19.30;41.30;18.20;102046.00;;;;5021188;28;20045;-69
2022/05/01 08:51:51;;;;;;;7.82;4.55;;;19.30;41.40;18.10;102052.00;;;;5032310;28;20090;-69
2022/05/01 08:54:38;;;;;;;10.05;4.28;;;19.30;41.50;18.10;102052.00;;;;5037186;28;20099;-69
2022/05/01 08:57:24;;;;;;;7.53;4.30;;;19.30;41.60;18.00;102058.00;;;;5022971;28;20041;-69
2022/05/01 09:00:10;;;;;;;8.65;4.60;;;19.20;42.30;18.00;102052.00;;;;5022483;28;20098;-73
2022/05/01 09:02:57;;;;;;;9.80;4.40;;;19.20;41.70;18.00;102056.00;;;;5030946;28;20040;-70
2022/05/01 09:05:43;;;;;;;5.05;3.95;;;19.10;41.70;18.00;102058.00;;;;5032431;28;20497;-70
2022/05/01 09:08:29;;;;;;;6.72;4.13;;;19.20;41.70;18.00;102063.00;;;;5043512;28;20055;-70
2022/05/01 09:14:25;;;;;;;5.82;4.00;;;19.10;41.60;17.90;102053.00;;;;5042112;28;20534;-70
2022/05/01 09:17:19;;;;;;;7.65;4.13;;;19.10;41.70;17.90;102049.00;;;;5045448;28;20044;-72
2022/05/01 09:20:09;;;;;;;6.60;4.15;;;19.00;41.60;17.90;102051.00;;;;5008019;28;20045;-70
2022/05/01 09:22:57;;;;;;;16.92;4.30;;;19.00;42.50;17.90;102052.00;;;;5042976;28;20029;-71
2022/05/01 09:25:43;;;;;;;6.15;3.90;;;18.90;42.00;17.90;102046.00;;;;5028274;28;20039;-71
2022/05/01 09:28:29;;;;;;;6.22;3.83;;;19.00;41.60;17.90;102052.00;;;;5025030;28;20033;-71
2022/05/01 09:31:16;;;;;;;13.02;3.80;;;19.00;41.40;17.90;102048.00;;;;5026937;28;20044;-71
2022/05/01 09:34:29;;;;;;;9.17;3.80;;;18.90;42.10;17.90;102044.00;;;;5022574;28;20037;-71
2022/05/01 09:37:19;;;;;;;8.15;4.50;;;18.90;42.00;17.90;102044.00;;;;5037576;28;20390;-71
2022/05/01 09:40:05;;;;;;;8.38;3.80;;;18.90;41.80;17.90;102042.00;;;;5040522;28;20049;-71
2022/05/01 09:42:51;;;;;;;6.05;4.30;;;18.90;42.00;17.90;102036.00;;;;5043593;28;20088;-71
2022/05/01 09:45:38;;;;;;;7.57;4.40;;;18.90;41.70;17.90;102037.00;;;;5020770;28;20034;-71
2022/05/01 09:48:24;;;;;;;7.03;3.75;;;19.00;41.90;17.90;102039.00;;;;5043560;28;20565;-71
2022/05/01 09:51:18;;;;;;;6.47;3.88;;;18.90;42.00;17.90;102031.00;;;;5034759;28;20041;-70
2022/05/01 09:54:05;;;;;;;7.00;3.70;;;18.90;42.10;17.90;102037.00;;;;5011904;28;20044;-71
2022/05/01 09:56:58;;;;;;;3.92;3.00;;;18.90;41.60;17.90;102038.00;;;;5019839;28;20079;-70
2022/05/01 09:59:46;;;;;;;5.53;3.33;;;18.90;41.40;17.90;102031.00;;;;5041959;28;20044;-70
2022/05/01 10:02:32;;;;;;;6.85;3.70;;;18.90;41.20;17.80;102029.00;;;;5043004;28;20037;-69
2022/05/01 10:05:18;;;;;;;5.57;3.00;;;19.00;41.60;17.90;102031.00;;;;5041912;28;20103;-69
2022/05/01 10:08:04;;;;;;;6.82;2.83;;;18.90;41.60;17.90;102030.00;;;;5028787;28;20048;-69
2022/05/01 10:10:54;;;;;;;4.90;3.13;;;18.90;41.70;17.90;102020.00;;;;5014171;28;20049;-69
2022/05/01 10:13:41;;;;;;;3.88;2.67;;;19.00;41.70;17.90;102019.00;;;;5035726;28;20041;-69
2022/05/01 10:16:27;;;;;;;4.97;3.10;;;18.90;40.90;17.90;102014.00;;;;5047789;28;20044;-69
2022/05/01 10:19:17;;;;;;;5.65;3.00;;;18.90;41.30;17.90;102017.00;;;;5042152;28;20528;-69
2022/05/01 10:22:03;;;;;;;4.00;2.85;;;19.00;40.70;17.90;102011.00;;;;5040467;28;20049;-69
2022/05/01 10:24:50;;;;;;;11.80;2.78;;;19.00;40.30;17.90;102015.00;;;;5023863;28;20048;-69
2022/05/01 10:27:46;;;;;;;6.35;2.90;;;19.00;40.80;17.90;102021.00;;;;5043327;28;20037;-69
2022/05/01 10:34:09;;;;;;;3.70;2.63;;;19.00;39.80;17.90;102001.00;;;;5016172;28;20041;-69
2022/05/01 10:37:51;;;;;;;4.53;2.73;;;19.00;39.70;17.90;102001.00;;;;5029762;28;20052;-69
2022/05/01 10:40:50;;;;;;;3.80;2.45;;;19.00;40.10;17.90;102006.00;;;;5038324;28;20061;-69
2022/05/01 10:43:37;;;;;;;5.00;2.60;;;19.00;40.30;17.90;102005.00;;;;5035155;28;20817;-68
2022/05/01 10:46:31;;;;;;;2.90;2.15;;;19.10;40.40;17.90;102011.00;;;;5036142;28;20048;-68
2022/05/01 10:49:36;;;;;;;3.78;3.03;;;19.00;40.10;17.90;102008.00;;;;5036167;28;20041;-68
2022/05/01 10:52:23;;;;;;;2.85;2.40;;;19.00;39.90;17.90;102002.00;;;;5023091;28;20041;-68
2022/05/01 10:55:09;;;;;;;3.08;2.20;;;19.00;39.80;17.90;102006.00;;;;5039104;28;20037;-68
2022/05/01 10:58:26;;;;;;;6.05;2.90;;;19.10;40.10;18.00;102005.00;;;;5035860;28;20418;-69
2022/05/01 11:01:13;;;;;;;6.60;2.42;;;19.00;40.30;18.00;101997.00;;;;5034605;28;20435;-68
2022/05/01 11:03:59;;;;;;;9.30;2.67;;;19.20;40.20;18.00;101998.00;;;;5038766;28;20055;-68
2022/05/01 11:06:45;;;;;;;3.90;2.45;;;19.10;40.10;18.10;101995.00;;;;5014224;28;20084;-68
2022/05/01 11:09:35;;;;;;;4.22;2.50;;;19.10;39.60;18.00;101998.00;;;;5027466;28;20049;-68
2022/05/01 11:12:22;;;;;;;3.45;2.78;;;19.10;39.40;18.00;101994.00;;;;5038708;28;20068;-68
2022/05/01 11:15:09;;;;;;;4.55;2.85;;;19.10;39.20;18.00;102002.00;;;;5021313;28;20399;-68
2022/05/01 11:17:55;;;;;;;4.80;2.22;;;19.10;39.00;18.00;101998.00;;;;5022208;28;20402;-68
2022/05/01 11:20:43;;;;;;;4.82;2.88;;;19.10;38.90;18.00;101989.00;;;;5024077;28;20037;-68
2022/05/01 11:23:33;;;;;;;;;;;19.10;38.90;17.90;101989.00;;;;5026022;28;20621;-68
2022/05/01 11:26:19;;;;;;;5.20;2.70;;;19.10;39.50;17.90;101990.00;;;;5033266;28;19960;-68
2022/05/01 11:29:17;;;;;;;4.70;2.92;;;19.10;38.80;17.90;101988.00;;;;5020008;28;20037;-68
2022/05/01 11:32:19;;;;;;;4.60;2.80;;;19.10;38.60;17.90;101983.00;;;;5035020;28;20396;-68
2022/05/01 11:35:05;;;;;;;6.82;3.53;;;19.10;38.40;17.90;101984.00;;;;5024238;28;20046;-68
2022/05/01 11:38:01;;;;;;;4.60;2.80;;;19.10;38.70;17.90;101983.00;;;;5040407;28;20106;-68
2022/05/01 11:41:00;;;;;;;4.70;2.85;;;19.00;38.10;17.90;101981.00;;;;5034204;28;20119;-68
2022/05/01 11:43:46;;;;;;;5.10;2.63;;;19.00;38.00;17.90;101971.00;;;;5013416;28;20123;-69
2022/05/01 11:46:32;;;;;;;4.15;2.40;;;19.00;38.70;17.90;101973.00;;;;5020990;28;20053;-68
2022/05/01 11:49:19;;;;;;;3.08;2.15;;;19.00;39.00;17.90;101967.00;;;;5032212;28;20544;-68
2022/05/01 11:52:05;;;;;;;4.97;2.25;;;19.00;39.00;18.00;101971.00;;;;5024951;28;20070;-68
2022/05/01 11:54:57;;;;;;;4.05;2.28;;;19.00;39.00;18.00;101960.00;;;;5026180;28;20047;-68
2022/05/01 12:03:51;;;;;;;3.58;1.92;;;19.00;39.20;18.00;101954.00;;;;5031816;28;20044;-68
2022/05/01 12:06:39;;;;;;;3.35;2.00;;;19.10;39.40;18.00;101957.00;;;;5017628;28;20044;-70
2022/05/01 12:09:28;;;;;;;2.63;1.95;;;19.10;39.30;18.00;101959.00;;;;5037665;28;20095;-69
2022/05/01 12:12:16;;;;;;;4.88;2.55;;;19.10;39.30;18.00;101959.00;;;;5018972;28;20636;-69
2022/05/01 12:15:04;;;;;;;3.40;1.80;;;19.10;39.20;18.10;101949.00;;;;5021398;28;20522;-68
2022/05/01 12:17:51;;;;;;;4.50;1.83;;;19.10;39.30;18.10;101954.00;;;;5038111;28;20055;-69
2022/05/01 12:20:37;;;;;;;5.90;3.10;;;19.10;39.30;18.10;101951.00;;;;5022806;28;20466;-68
2022/05/01 12:23:23;;;;;;;3.25;1.60;;;19.10;39.40;18.10;101953.00;;;;5015512;28;20376;-69
2022/05/01 12:26:09;;;;;;;3.03;1.80;;;19.10;39.50;18.10;101931.00;;;;5036362;28;20494;-68
2022/05/01 12:28:55;;;;;;;2.88;1.70;;;19.20;39.50;18.10;101937.00;;;;5006895;28;20053;-68
2022/05/01 12:32:08;;;;;;;5.65;2.20;;;19.20;39.50;18.10;101938.00;;;;5017818;28;20094;-68
2022/05/01 12:35:00;;;;;;;2.67;2.05;;;19.20;39.60;18.20;101939.00;;;;5019838;28;20402;-68
2022/05/01 12:37:48;;;;;;;2.47;2.00;;;19.20;39.70;18.20;101930.00;;;;5026089;28;20042;-68
2022/05/01 12:43:51;;;;;;;2.72;1.80;;;19.30;39.80;18.20;101922.00;;;;5038471;28;20047;-68
2022/05/01 12:46:39;;;;;;;2.55;1.70;;;19.30;39.80;18.20;101920.00;;;;5014002;28;20056;-68
2022/05/01 12:49:26;;;;;;;2.15;1.80;;;19.30;39.90;18.20;101920.00;;;;5036333;28;20872;-68
2022/05/01 12:52:33;;;;;;;2.90;1.77;;;19.30;39.70;18.20;101923.00;;;;5035760;28;20049;-68
2022/05/01 12:55:42;;;;;;;1.77;1.60;;;19.30;39.70;18.20;101919.00;;;;5033022;28;20073;-68